Bowerbank, Maine
Current Conditions -  °F | °C
As of 2:53 PM on Thursday 29 Jan 2015 (Local Time) from KBGR Reporting Station
Few Clouds Few Clouds  
Wind Chill: 25°   Ceiling: Unl
Heat Index: 25°   Visibility: 10mi
Dew Point:   Wind: 0mph
Humidity: 43%   Direction: NA
Pressure: 30.19"   Gusts: NA
Location:  45.2129°N, 69.1615°W
Report Text: KBGR 291953Z 00000KT 10SM FEW250 M04/M15 A3019 RMK AO2 SLP228 T10391150
Loading
Personal Weather Stations






























Interactive Weather Map New forecast layout! Learn more

10-Day Weather Forecast

Advertisements
Track Severe Weather on mobile